Time;durP1;ratioP1;P1;durP2;ratioP2;P2;SDS_P1;SDS_P2;PMS_P1;PMS_P2;Temp;Humidity;BMP_temperature;BMP_pressure;BME280_temperature;BME280_humidity;BME280_pressure;Samples;Min_cycle;Max_cycle;Signal;HPM_P1;HPM_P2
2024/04/15 00:01:40;;;;;;;2.85;1.92;;;;;;;13.75;51.46;99827.09;11319190;26;20006;-61
2024/04/15 00:06:43;;;;;;;3.30;1.70;;;;;;;13.90;51.38;99820.72;11319696;26;19998;-61
2024/04/15 00:11:47;;;;;;;6.88;1.95;;;;;;;13.93;51.03;99804.69;11316819;26;19998;-61
2024/04/15 00:16:50;;;;;;;3.95;1.70;;;;;;;13.87;51.37;99804.31;11319037;26;20094;-61
2024/04/15 00:21:53;;;;;;;2.88;1.73;;;;;;;13.84;51.18;99805.38;11316578;26;19998;-61
2024/04/15 00:26:57;;;;;;;6.03;1.88;;;;;;;13.76;50.99;99792.81;11317666;26;20082;-61
2024/04/15 00:31:59;;;;;;;3.63;1.77;;;;;;;13.74;51.01;99778.94;11316508;26;20066;-61
2024/04/15 00:37:02;;;;;;;3.50;2.10;;;;;;;13.93;51.12;99769.66;11319021;26;20010;-61
2024/04/15 00:42:05;;;;;;;3.63;1.80;;;;;;;13.83;50.70;99759.03;11318972;26;20061;-61
2024/04/15 00:47:09;;;;;;;3.25;1.90;;;;;;;13.75;50.96;99746.47;11318624;26;21585;-61
2024/04/15 00:52:12;;;;;;;4.00;1.77;;;;;;;13.74;51.02;99734.25;11316667;26;20439;-61
2024/04/15 00:57:15;;;;;;;3.67;1.60;;;;;;;13.75;51.02;99728.06;11314198;26;20339;-61
2024/04/15 01:02:17;;;;;;;5.70;1.80;;;;;;;13.65;51.18;99721.84;11315559;26;20686;-61
2024/04/15 01:07:21;;;;;;;5.10;1.60;;;;;;;13.41;51.61;99720.19;11318719;26;20015;-61
2024/04/15 01:12:23;;;;;;;4.53;2.03;;;;;;;13.36;51.92;99690.78;11318494;26;20369;-61
2024/04/15 01:17:26;;;;;;;2.78;1.95;;;;;;;13.42;51.87;99695.56;11317325;26;19998;-61
2024/04/15 01:22:58;;;;;;;4.30;1.60;;;;;;;13.41;52.73;99678.97;11317713;26;20021;-61
2024/04/15 01:28:02;;;;;;;5.22;2.13;;;;;;;13.50;52.11;99680.09;11317142;26;20002;-61
2024/04/15 01:33:05;;;;;;;4.13;1.70;;;;;;;13.54;52.24;99661.38;11321937;26;20435;-61
2024/04/15 01:38:08;;;;;;;3.95;1.88;;;;;;;13.49;51.85;99686.31;11322873;26;20435;-61
2024/04/15 01:43:11;;;;;;;5.63;1.75;;;;;;;13.39;51.82;99680.06;11324376;26;20010;-61
2024/04/15 01:48:13;;;;;;;7.55;1.80;;;;;;;13.36;51.72;99678.50;11322441;26;20006;-61
2024/04/15 01:53:16;;;;;;;6.20;2.10;;;;;;;13.29;51.70;99698.28;11323956;26;20006;-61
2024/04/15 01:58:19;;;;;;;2.85;1.90;;;;;;;13.17;51.30;99709.69;11324328;26;20002;-61
2024/04/15 02:03:21;;;;;;;3.50;1.80;;;;;;;13.06;50.99;99703.56;11323164;26;19998;-61
2024/04/15 02:08:24;;;;;;;6.07;2.03;;;;;;;12.90;51.54;99717.78;11324128;26;20013;-61
2024/04/15 02:13:27;;;;;;;5.95;2.10;;;;;;;12.72;51.98;99700.75;11323557;26;20073;-61
2024/04/15 02:18:29;;;;;;;4.68;2.33;;;;;;;12.60;52.69;99701.63;11322532;26;20024;-61
2024/04/15 02:23:32;;;;;;;6.05;2.30;;;;;;;12.47;52.59;99695.59;11323868;26;20021;-62
2024/04/15 02:28:35;;;;;;;3.63;2.08;;;;;;;12.35;52.96;99691.22;11324215;26;20463;-61
2024/04/15 02:33:37;;;;;;;8.73;2.53;;;;;;;12.46;53.41;99690.44;11322732;26;20041;-62
2024/04/15 02:38:40;;;;;;;6.40;2.55;;;;;;;12.56;52.90;99687.06;11291334;26;20370;-62
2024/04/15 02:43:43;;;;;;;5.80;2.38;;;;;;;12.61;53.20;99678.88;11321535;26;20311;-61
2024/04/15 02:48:46;;;;;;;3.25;1.92;;;;;;;12.49;53.21;99674.50;11324085;26;19998;-61
2024/04/15 02:53:49;;;;;;;4.63;2.10;;;;;;;12.59;53.88;99676.38;11323443;26;20037;-61
2024/04/15 02:58:51;;;;;;;3.13;1.90;;;;;;;12.60;54.24;99657.03;11321756;26;20002;-61
2024/04/15 03:03:54;;;;;;;4.63;1.98;;;;;;;12.36;54.58;99666.66;11320207;26;19998;-62
2024/04/15 03:08:57;;;;;;;5.50;1.95;;;;;;;12.29;54.96;99661.97;11323421;26;20019;-61
2024/04/15 03:14:00;;;;;;;3.72;2.15;;;;;;;12.24;55.04;99675.38;11290310;26;20074;-61
2024/04/15 03:19:02;;;;;;;3.83;2.20;;;;;;;12.33;54.82;99660.81;11323554;26;20380;-61
2024/04/15 03:24:05;;;;;;;3.70;2.03;;;;;;;12.40;55.33;99654.16;11321628;26;20512;-61
2024/04/15 03:29:07;;;;;;;3.33;1.67;;;;;;;12.31;55.45;99653.06;11321869;26;19994;-61
2024/04/15 03:34:10;;;;;;;3.97;1.75;;;;;;;12.22;55.51;99648.44;11322286;26;20002;-61
2024/04/15 03:39:13;;;;;;;3.65;1.90;;;;;;;12.19;55.72;99663.53;11321162;26;20002;-61
2024/04/15 03:44:15;;;;;;;4.65;2.40;;;;;;;12.24;56.15;99649.16;11314698;26;19999;-61
2024/04/15 03:49:18;;;;;;;3.45;2.10;;;;;;;12.25;56.09;99636.91;11318544;26;20470;-61
2024/04/15 03:54:20;;;;;;;5.28;2.35;;;;;;;12.23;56.27;99626.53;11318964;26;20020;-61
2024/04/15 03:59:23;;;;;;;5.72;2.17;;;;;;;12.25;56.33;99626.41;11321090;26;20009;-62
2024/04/15 04:04:26;;;;;;;2.80;1.83;;;;;;;12.12;56.09;99619.41;11318868;26;20339;-61
2024/04/15 04:09:29;;;;;;;4.40;2.17;;;;;;;11.97;56.82;99628.34;11315081;26;20509;-62
2024/04/15 04:14:32;;;;;;;3.60;2.20;;;;;;;11.89;57.33;99627.19;11313690;26;20008;-62
2024/04/15 04:19:36;;;;;;;4.20;2.17;;;;;;;11.88;57.13;99628.16;11289774;26;20568;-62
2024/04/15 04:24:39;;;;;;;4.40;2.50;;;;;;;11.83;57.17;99628.47;11319696;26;20002;-61
2024/04/15 04:29:41;;;;;;;6.47;2.30;;;;;;;11.73;57.72;99616.13;11319965;26;20009;-61
2024/04/15 04:34:44;;;;;;;5.38;2.33;;;;;;;11.74;57.70;99607.31;11319690;26;19994;-61
2024/04/15 04:39:46;;;;;;;4.35;2.35;;;;;;;11.73;57.64;99603.00;11315587;26;20002;-61
2024/04/15 04:44:56;;;;;;;4.78;2.10;;;;;;;11.77;57.97;99601.84;11317202;26;20338;-61
2024/04/15 04:50:00;;;;;;;5.85;2.47;;;;;;;11.78;57.72;99593.91;11319743;26;20006;-62
2024/04/15 04:55:03;;;;;;;5.22;2.47;;;;;;;11.66;57.48;99593.94;11317222;26;20002;-61
2024/04/15 05:00:06;;;;;;;7.65;2.88;;;;;;;11.57;57.84;99598.00;11318173;26;20014;-62
2024/04/15 05:05:09;;;;;;;4.35;2.30;;;;;;;11.50;58.16;99593.31;11315581;26;20002;-61
2024/04/15 05:10:11;;;;;;;4.95;2.53;;;;;;;11.40;58.23;99585.22;11318730;26;20108;-62
2024/04/15 05:15:14;;;;;;;5.00;2.83;;;;;;;11.60;58.04;99584.69;11318542;26;19998;-61
2024/04/15 05:20:17;;;;;;;5.07;2.60;;;;;;;11.72;57.81;99581.22;11284798;26;20480;-61
2024/04/15 05:25:19;;;;;;;4.88;2.35;;;;;;;11.83;57.76;99573.44;11315152;26;21161;-62
2024/04/15 05:30:22;;;;;;;3.75;2.17;;;;;;;11.94;57.67;99577.94;11290951;26;20025;-61
2024/04/15 05:35:24;;;;;;;4.18;2.22;;;;;;;11.97;57.49;99577.72;11317699;26;19999;-61
2024/04/15 05:40:27;;;;;;;4.40;2.20;;;;;;;11.99;57.51;99579.28;11317475;26;20014;-61
2024/04/15 05:45:30;;;;;;;3.92;2.22;;;;;;;11.89;57.16;99574.78;11315862;26;20454;-61
2024/04/15 05:50:33;;;;;;;5.55;2.50;;;;;;;11.90;57.80;99563.38;11316450;26;19999;-62
2024/04/15 05:55:36;;;;;;;4.10;1.92;;;;;;;11.94;57.25;99567.47;11317309;26;20334;-61
2024/04/15 06:00:38;;;;;;;5.32;2.20;;;;;;;11.89;57.36;99572.16;11316449;26;20219;-61
2024/04/15 06:05:41;;;;;;;5.05;2.20;;;;;;;11.77;57.44;99558.16;11317823;26;20007;-61
2024/04/15 06:10:47;;;;;;;4.82;2.40;;;;;;;11.81;57.41;99554.38;11314513;26;20017;-61
2024/04/15 06:15:51;;;;;;;6.75;2.47;;;;;;;11.91;57.07;99546.69;11316909;26;20486;-62
2024/04/15 06:20:54;;;;;;;3.75;2.33;;;;;;;12.06;56.99;99541.22;11319769;26;20054;-62
2024/04/15 06:25:56;;;;;;;6.13;2.42;;;;;;;12.07;56.73;99542.03;11320762;26;20028;-62
2024/04/15 06:30:59;;;;;;;3.38;2.03;;;;;;;12.21;56.70;99541.06;11320741;26;20013;-62
2024/04/15 06:36:02;;;;;;;4.28;1.90;;;;;;;12.41;56.13;99535.22;11319573;26;20066;-63
2024/04/15 06:41:05;;;;;;;3.03;1.70;;;;;;;12.55;55.14;99527.16;11324147;26;20044;-62
2024/04/15 06:46:07;;;;;;;4.22;2.03;;;;;;;13.08;54.63;99515.25;11291281;26;20335;-63
2024/04/15 06:51:10;;;;;;;2.90;1.60;;;;;;;13.23;53.69;99514.91;11321256;26;20682;-62
2024/04/15 06:56:13;;;;;;;3.53;1.48;;;;;;;13.31;52.73;99519.59;11321140;26;20113;-63
2024/04/15 07:01:16;;;;;;;3.05;1.52;;;;;;;13.17;51.53;99504.88;11319361;26;20353;-62
2024/04/15 07:06:19;;;;;;;3.55;1.42;;;;;;;13.29;50.72;99492.59;11322192;26;20002;-63
2024/04/15 07:11:21;;;;;;;3.58;1.30;;;;;;;13.18;49.62;99489.97;11319332;26;19994;-63
2024/04/15 07:16:24;;;;;;;5.80;1.90;;;;;;;13.28;49.01;99472.53;11319942;26;20489;-64
2024/04/15 07:21:27;;;;;;;3.40;1.42;;;;;;;13.98;48.54;99455.50;11322020;26;20483;-62
2024/04/15 07:26:29;;;;;;;2.22;1.20;;;;;;;14.30;47.61;99435.28;11323441;26;20043;-63
2024/04/15 07:31:32;;;;;;;1.48;0.95;;;;;;;14.65;46.25;99444.69;11318921;26;20017;-62
2024/04/15 07:36:35;;;;;;;2.05;1.00;;;;;;;15.11;45.34;99431.91;11319332;26;20013;-62
2024/04/15 07:41:37;;;;;;;5.65;1.02;;;;;;;15.19;45.39;99438.19;11322355;26;21286;-62
2024/04/15 07:46:40;;;;;;;0.80;0.80;;;;;;;14.93;44.90;99439.59;11322477;26;20533;-62
2024/04/15 07:51:42;;;;;;;2.20;0.80;;;;;;;14.70;45.03;99432.81;11316215;26;20389;-62
2024/04/15 07:56:45;;;;;;;2.38;1.10;;;;;;;15.00;44.28;99418.84;11290332;26;20041;-62
2024/04/15 08:01:48;;;;;;;3.72;1.25;;;;;;;15.07;43.88;99414.72;11320782;26;20576;-62
2024/04/15 08:06:51;;;;;;;1.38;1.05;;;;;;;14.76;43.62;99413.88;11320663;26;20003;-62
2024/04/15 08:12:12;;;;;;;;;;;;;;;14.86;42.72;99420.00;11320834;26;20438;-62
2024/04/15 08:17:14;;;;;;;1.70;1.02;;;;;;;15.04;42.48;99415.81;11321569;26;20401;-62
2024/04/15 08:22:17;;;;;;;5.20;1.70;;;;;;;14.68;42.42;99423.38;11262129;26;20006;-62
2024/04/15 08:27:21;;;;;;;2.72;1.27;;;;;;;14.73;42.31;99414.16;11320471;26;20046;-62
2024/04/15 08:32:24;;;;;;;2.08;1.10;;;;;;;15.05;41.98;99398.22;11316185;26;20635;-62
2024/04/15 08:37:26;;;;;;;2.97;0.90;;;;;;;15.28;40.53;99378.59;11319544;26;19998;-62
2024/04/15 08:42:53;;;;;;;1.20;0.70;;;;;;;15.68;39.29;99368.88;11316908;26;19999;-62
2024/04/15 08:47:58;;;;;;;0.88;0.80;;;;;;;16.01;39.99;99349.16;11316218;26;20002;-62
2024/04/15 08:53:00;;;;;;;2.92;0.80;;;;;;;16.61;39.37;99353.28;11319687;26;20027;-62
2024/04/15 08:58:04;;;;;;;1.27;0.70;;;;;;;17.17;37.67;99351.34;11291497;26;20423;-62
2024/04/15 09:03:07;;;;;;;4.95;0.88;;;;;;;17.01;37.77;99340.59;11318891;26;20450;-63
2024/04/15 09:08:12;;;;;;;2.53;0.80;;;;;;;17.34;37.62;99342.69;11318346;26;20017;-62
2024/04/15 09:13:16;;;;;;;4.20;0.90;;;;;;;17.60;37.10;99327.75;11318395;26;20457;-62
2024/04/15 09:18:19;;;;;;;3.15;0.98;;;;;;;16.97;37.97;99310.16;11319525;26;20002;-62
2024/04/15 09:23:24;;;;;;;1.17;0.75;;;;;;;17.47;37.54;99284.97;11318101;26;20078;-62
2024/04/15 09:28:27;;;;;;;0.57;0.57;;;;;;;17.35;36.41;99267.66;11318583;26;20006;-62
2024/04/15 09:33:31;;;;;;;4.55;0.80;;;;;;;17.44;36.83;99258.00;11317710;26;20037;-63
2024/04/15 09:38:36;;;;;;;2.13;0.95;;;;;;;17.71;34.18;99234.09;11318138;26;20026;-62
2024/04/15 09:43:46;;;;;;;1.77;0.98;;;;;;;17.92;33.11;99228.47;11289253;26;19998;-62
2024/04/15 09:48:49;;;;;;;3.10;1.40;;;;;;;17.74;33.26;99220.59;11309865;26;20006;-62
2024/04/15 09:53:53;;;;;;;2.08;1.02;;;;;;;17.47;32.46;99210.94;11318311;26;19998;-62
2024/04/15 09:58:57;;;;;;;0.93;0.70;;;;;;;17.48;31.61;99188.81;11321402;26;20151;-62
2024/04/15 10:04:03;;;;;;;2.10;0.80;;;;;;;17.60;30.77;99179.66;11321684;26;20014;-62
2024/04/15 10:09:09;;;;;;;1.65;0.80;;;;;;;17.44;31.48;99184.00;11321008;26;20014;-63
2024/04/15 10:14:13;;;;;;;1.55;0.75;;;;;;;17.12;31.17;99168.63;11322027;26;20014;-63
2024/04/15 10:19:23;;;;;;;1.65;0.80;;;;;;;17.31;29.65;99138.56;11320082;26;20098;-62
2024/04/15 10:24:26;;;;;;;1.52;0.75;;;;;;;17.45;30.75;99136.25;11320974;26;20013;-62
2024/04/15 10:29:32;;;;;;;1.08;0.73;;;;;;;17.46;31.03;99122.06;11323411;26;20014;-62
2024/04/15 10:34:48;;;;;;;1.35;0.70;;;;;;;17.34;29.43;99102.16;11291594;26;20002;-62
2024/04/15 10:39:51;;;;;;;2.25;0.80;;;;;;;17.68;31.06;99103.03;11320038;26;20001;-62
2024/04/15 10:44:55;;;;;;;5.90;1.50;;;;;;;17.71;30.32;99076.25;11318578;26;20006;-63
2024/04/15 10:49:59;;;;;;;2.13;0.60;;;;;;;17.52;29.27;99073.00;11321909;26;20010;-63
2024/04/15 10:55:01;;;;;;;0.52;0.40;;;;;;;17.38;30.28;99053.28;11320626;26;20046;-62
2024/04/15 11:00:08;;;;;;;3.25;0.85;;;;;;;17.34;28.21;99043.16;11320831;26;19994;-62
2024/04/15 11:05:12;;;;;;;0.98;0.70;;;;;;;17.53;29.98;99027.91;11314338;26;20560;-63
2024/04/15 11:10:15;;;;;;;1.85;0.68;;;;;;;17.46;29.79;99016.31;11320958;26;20038;-63
2024/04/15 11:15:18;;;;;;;1.85;0.80;;;;;;;17.75;29.33;98992.16;11314933;26;19998;-62
2024/04/15 11:20:23;;;;;;;1.52;0.60;;;;;;;18.13;26.88;98982.84;11316485;26;20752;-62
2024/04/15 11:25:29;;;;;;;0.55;0.45;;;;;;;18.16;26.68;98975.41;11316060;26;20002;-62
2024/04/15 11:30:34;;;;;;;3.65;0.65;;;;;;;18.10;26.01;98946.09;11314631;26;20009;-63
2024/04/15 11:35:50;;;;;;;1.98;0.88;;;;;;;18.59;25.03;98945.19;11316253;26;20332;-63
2024/04/15 11:40:53;;;;;;;2.83;0.75;;;;;;;18.59;26.80;98946.03;11317635;26;20002;-63
2024/04/15 11:45:56;;;;;;;0.80;0.57;;;;;;;18.23;27.81;98917.38;11311982;26;20017;-62
2024/04/15 11:50:59;;;;;;;2.05;0.70;;;;;;;18.08;27.63;98911.03;11319787;26;20013;-63
2024/04/15 11:56:03;;;;;;;3.13;0.70;;;;;;;17.83;28.11;98895.13;11318133;26;20002;-62
2024/04/15 12:01:06;;;;;;;1.90;0.68;;;;;;;18.11;27.40;98892.19;11316099;26;19998;-61
2024/04/15 12:06:10;;;;;;;1.25;0.68;;;;;;;18.47;27.52;98888.25;11319668;26;20069;-62
2024/04/15 12:11:14;;;;;;;1.05;0.52;;;;;;;18.87;26.28;98867.00;11319220;26;20078;-61
2024/04/15 12:16:16;;;;;;;0.40;0.40;;;;;;;18.96;25.60;98844.78;11286320;26;19998;-62
2024/04/15 12:21:19;;;;;;;0.88;0.60;;;;;;;19.31;26.09;98823.16;11313779;26;20474;-63
2024/04/15 12:26:25;;;;;;;2.03;0.73;;;;;;;19.51;25.17;98817.38;11319779;26;19994;-62
2024/04/15 12:31:27;;;;;;;1.95;0.60;;;;;;;19.60;25.88;98788.00;11317019;26;20328;-62
2024/04/15 12:36:30;;;;;;;2.63;0.55;;;;;;;19.36;25.53;98794.28;11318934;26;20470;-62
2024/04/15 12:41:33;;;;;;;1.67;0.60;;;;;;;19.51;26.10;98778.44;11319117;26;20701;-62
2024/04/15 12:46:35;;;;;;;1.17;0.63;;;;;;;19.68;25.89;98768.56;11314491;26;20009;-63
2024/04/15 12:51:38;;;;;;;0.45;0.45;;;;;;;19.61;26.12;98760.47;11319069;26;20010;-62
2024/04/15 12:56:40;;;;;;;1.27;0.88;;;;;;;19.13;25.50;98750.19;11315662;26;21088;-63
2024/04/15 13:01:43;;;;;;;2.03;0.65;;;;;;;18.46;25.13;98775.44;11316841;26;20445;-62
2024/04/15 13:07:04;;;;;;;;;;;;;;;18.36;25.18;98769.50;11319380;26;20006;-62
2024/04/15 13:12:10;;;;;;;5.03;1.13;;;;;;;18.22;25.45;98749.00;11318041;26;20032;-63
2024/04/15 13:17:13;;;;;;;3.40;0.63;;;;;;;18.05;25.03;98734.13;11318563;26;20012;-62
2024/04/15 13:22:15;;;;;;;1.65;0.57;;;;;;;17.69;24.62;98702.72;11316356;26;19999;-62
2024/04/15 13:27:18;;;;;;;2.33;0.60;;;;;;;17.65;26.01;98714.63;11316538;26;21111;-62
2024/04/15 13:32:21;;;;;;;1.75;0.82;;;;;;;17.71;25.41;98694.63;11279461;26;20002;-61
2024/04/15 13:37:24;;;;;;;4.15;0.65;;;;;;;17.18;26.20;98699.56;11314739;26;19999;-61
2024/04/15 13:42:27;;;;;;;1.77;0.80;;;;;;;16.96;25.80;98699.16;11314633;26;20021;-61
2024/04/15 13:47:31;;;;;;;1.02;0.60;;;;;;;17.15;26.10;98698.06;11309663;26;20017;-62
2024/04/15 13:52:34;;;;;;;1.45;0.57;;;;;;;17.20;25.71;98671.94;11312851;26;20211;-62
2024/04/15 13:57:37;;;;;;;2.10;0.85;;;;;;;17.32;26.35;98678.59;11312753;26;20006;-62
2024/04/15 14:02:40;;;;;;;3.13;0.65;;;;;;;16.96;26.28;98650.78;11311966;26;20017;-62
2024/04/15 14:07:46;;;;;;;4.93;1.15;;;;;;;17.19;26.58;98620.13;11315510;26;20002;-63
2024/04/15 14:12:49;;;;;;;3.35;0.82;;;;;;;17.46;26.36;98579.34;11315821;26;20002;-62
2024/04/15 14:17:55;;;;;;;0.93;0.57;;;;;;;17.11;25.69;98569.91;11311371;26;20021;-63
2024/04/15 14:22:58;;;;;;;1.77;0.60;;;;;;;17.19;26.96;98567.28;11314611;26;20404;-63
2024/04/15 14:28:00;;;;;;;3.15;0.75;;;;;;;17.38;27.22;98559.03;11279572;26;20025;-62
2024/04/15 14:33:03;;;;;;;3.40;0.98;;;;;;;17.49;26.99;98552.56;11315730;26;20006;-63
2024/04/15 14:38:06;;;;;;;18.17;2.28;;;;;;;17.33;27.05;98537.56;11315290;26;20013;-62
2024/04/15 14:43:09;;;;;;;0.77;0.50;;;;;;;17.45;27.57;98554.72;11317482;26;19998;-62
2024/04/15 14:48:11;;;;;;;2.25;0.63;;;;;;;16.65;27.70;98538.88;11321413;26;20494;-63
2024/04/15 14:53:14;;;;;;;1.65;0.63;;;;;;;16.34;28.14;98530.72;11318748;26;20051;-63
2024/04/15 14:58:17;;;;;;;3.78;0.88;;;;;;;16.43;28.94;98513.06;11322837;26;20002;-62
2024/04/15 15:03:19;;;;;;;1.88;0.80;;;;;;;16.39;28.93;98528.41;11319729;26;20005;-62
2024/04/15 15:08:22;;;;;;;5.80;1.13;;;;;;;16.41;29.53;98528.22;11286477;26;20543;-62
2024/04/15 15:13:25;;;;;;;2.58;0.77;;;;;;;16.45;29.74;98487.38;11317570;26;20014;-62
2024/04/15 15:18:28;;;;;;;1.08;0.73;;;;;;;16.55;29.66;98498.63;11319406;26;20063;-62
2024/04/15 15:23:31;;;;;;;1.35;0.77;;;;;;;16.62;29.92;98486.41;11336075;25;20002;-62
2024/04/15 15:28:34;;;;;;;2.35;0.60;;;;;;;16.42;30.55;98475.31;11316377;26;20036;-62
2024/04/15 15:33:36;;;;;;;2.40;1.52;;;;;;;16.12;30.81;98482.00;11318624;26;20013;-63
2024/04/15 15:38:42;;;;;;;6.95;0.85;;;;;;;15.98;30.63;98471.25;11315952;26;20006;-62
2024/04/15 15:43:47;;;;;;;4.40;1.08;;;;;;;15.59;30.97;98457.78;11287950;26;20026;-62
2024/04/15 15:48:49;;;;;;;0.68;0.63;;;;;;;15.47;31.31;98471.38;11310391;26;19998;-62
2024/04/15 15:53:52;;;;;;;3.60;0.80;;;;;;;15.93;31.32;98463.84;11317545;26;20457;-62
2024/04/15 15:58:55;;;;;;;0.85;0.60;;;;;;;15.76;32.03;98451.59;11283233;26;20628;-62
2024/04/15 16:03:57;;;;;;;1.08;0.63;;;;;;;15.43;32.52;98453.25;11284380;26;20006;-62
2024/04/15 16:09:01;;;;;;;2.55;1.33;;;;;;;15.04;34.04;98501.25;11313996;26;20002;-62
2024/04/15 16:14:05;;;;;;;1.05;0.52;;;;;;;14.52;36.72;98524.84;11317763;26;19998;-62
2024/04/15 16:19:09;;;;;;;1.30;0.65;;;;;;;13.97;39.78;98548.69;11315673;26;20006;-62
2024/04/15 16:24:12;;;;;;;1.33;0.68;;;;;;;12.60;45.26;98617.47;11317903;26;20111;-62
2024/04/15 16:29:14;;;;;;;1.95;1.05;;;;;;;12.00;49.35;98623.63;11310269;26;20013;-63
2024/04/15 16:34:17;;;;;;;1.60;0.73;;;;;;;10.69;51.77;98700.91;11316687;26;20437;-62
2024/04/15 16:39:20;;;;;;;0.47;0.30;;;;;;;9.85;52.25;98738.91;11318439;26;19998;-63
2024/04/15 16:44:22;;;;;;;0.93;0.40;;;;;;;9.58;51.42;98737.38;11317104;26;20346;-62
2024/04/15 16:49:31;;;;;;;0.73;0.50;;;;;;;9.74;50.53;98781.50;11315237;26;20019;-62
2024/04/15 16:54:35;;;;;;;0.30;0.30;;;;;;;9.21;51.14;98808.88;11315800;26;20038;-62
2024/04/15 16:59:38;;;;;;;0.28;0.20;;;;;;;9.05;52.15;98802.25;11317770;26;20129;-62
2024/04/15 17:04:40;;;;;;;0.28;0.20;;;;;;;8.62;54.86;98838.31;11308462;26;20028;-63
2024/04/15 17:09:44;;;;;;;0.50;0.30;;;;;;;8.20;53.26;98836.03;11315649;26;20014;-62
2024/04/15 17:14:47;;;;;;;0.22;0.22;;;;;;;8.03;53.03;98832.78;11318834;26;20045;-62
2024/04/15 17:19:51;;;;;;;0.10;0.10;;;;;;;8.32;53.23;98811.78;11316416;26;20434;-63
2024/04/15 17:24:54;;;;;;;1.08;0.50;;;;;;;8.36;52.61;98776.75;11318312;26;20006;-62
2024/04/15 17:29:58;;;;;;;0.43;0.40;;;;;;;8.22;52.20;98756.03;11317473;26;20021;-62
2024/04/15 17:35:00;;;;;;;0.80;0.40;;;;;;;8.33;52.33;98774.34;11309996;26;20016;-62
2024/04/15 17:40:04;;;;;;;0.40;0.40;;;;;;;8.39;52.85;98824.25;11317521;26;20043;-62
2024/04/15 17:45:06;;;;;;;0.47;0.40;;;;;;;8.20;53.68;98873.31;11315561;26;20041;-62
2024/04/15 17:50:09;;;;;;;0.30;0.30;;;;;;;8.32;52.87;98863.88;11280682;26;19998;-62
2024/04/15 17:55:18;;;;;;;1.17;0.70;;;;;;;8.18;54.34;98879.59;11314572;26;20100;-62
2024/04/15 18:00:21;;;;;;;1.00;0.52;;;;;;;8.18;53.64;98853.53;11316189;26;20009;-62
2024/04/15 18:05:23;;;;;;;0.43;0.43;;;;;;;8.38;53.84;98855.63;11316006;26;20014;-62
2024/04/15 18:10:26;;;;;;;0.60;0.60;;;;;;;8.38;55.43;98842.63;11315669;26;20543;-62
2024/04/15 18:15:29;;;;;;;1.55;0.47;;;;;;;8.13;53.73;98839.97;11288751;26;20017;-62
2024/04/15 18:20:31;;;;;;;0.85;0.60;;;;;;;7.81;54.19;98829.88;11322446;26;20002;-62
2024/04/15 18:25:35;;;;;;;0.57;0.50;;;;;;;7.53;54.80;98835.22;11325071;26;20013;-62
2024/04/15 18:30:42;;;;;;;0.32;0.28;;;;;;;7.69;54.22;98858.50;11288903;26;20002;-62
2024/04/15 18:35:44;;;;;;;1.02;0.50;;;;;;;7.75;54.59;98871.94;11316497;26;20020;-62
2024/04/15 18:40:48;;;;;;;1.38;0.60;;;;;;;7.86;54.56;98895.50;11314893;26;20025;-62
2024/04/15 18:45:51;;;;;;;0.43;0.40;;;;;;;7.67;55.33;98884.63;11318211;26;20109;-62
2024/04/15 18:50:54;;;;;;;0.40;0.40;;;;;;;7.56;55.10;98881.88;11317754;26;20010;-62
2024/04/15 18:55:57;;;;;;;1.90;0.57;;;;;;;7.54;54.29;98894.16;11321093;26;19998;-62
2024/04/15 19:01:01;;;;;;;2.50;0.82;;;;;;;7.33;54.35;98892.91;11321873;26;20006;-61
2024/04/15 19:06:04;;;;;;;0.60;0.50;;;;;;;7.17;54.67;98894.78;11320823;26;19998;-61
2024/04/15 19:11:06;;;;;;;0.73;0.65;;;;;;;7.08;54.80;98904.00;11321530;26;19998;-61
2024/04/15 19:16:09;;;;;;;1.08;0.50;;;;;;;6.93;55.52;98904.09;11320881;26;20006;-61
2024/04/15 19:21:14;;;;;;;1.00;0.40;;;;;;;6.86;55.21;98911.44;11314404;26;19998;-61
2024/04/15 19:26:17;;;;;;;0.50;0.40;;;;;;;6.80;54.82;98922.19;11320823;26;20021;-61
2024/04/15 19:31:19;;;;;;;1.98;0.65;;;;;;;6.75;54.82;98923.41;11316392;26;20783;-61
2024/04/15 19:36:35;;;;;;;0.82;0.43;;;;;;;6.75;54.70;98928.63;11320646;26;20466;-61
2024/04/15 19:41:39;;;;;;;0.47;0.40;;;;;;;6.63;54.71;98947.53;11320498;26;20009;-61
2024/04/15 19:46:43;;;;;;;0.52;0.52;;;;;;;6.55;54.80;98947.16;11319797;26;20456;-61
2024/04/15 19:51:47;;;;;;;0.40;0.40;;;;;;;6.53;54.27;98960.22;11318678;26;20018;-61
2024/04/15 19:56:50;;;;;;;0.50;0.50;;;;;;;6.42;54.23;98956.56;11320622;26;20002;-61
2024/04/15 20:01:56;;;;;;;0.75;0.40;;;;;;;6.35;54.34;98954.34;11320779;26;20716;-61
2024/04/15 20:07:00;;;;;;;1.17;0.50;;;;;;;6.39;54.15;98944.59;11317503;26;20013;-61
2024/04/15 20:12:04;;;;;;;0.80;0.60;;;;;;;6.40;53.96;98948.03;11318413;26;20002;-62
2024/04/15 20:17:09;;;;;;;0.30;0.30;;;;;;;6.31;54.51;98955.44;11318418;26;20006;-61
2024/04/15 20:22:13;;;;;;;1.50;0.65;;;;;;;6.17;54.41;98951.94;11289257;26;20033;-62
2024/04/15 20:27:17;;;;;;;0.93;0.60;;;;;;;6.16;54.58;98955.47;11316325;26;20491;-62
2024/04/15 20:32:21;;;;;;;1.45;0.65;;;;;;;6.34;54.16;98942.28;11319424;26;19994;-61
2024/04/15 20:37:25;;;;;;;1.38;0.75;;;;;;;6.22;54.57;98948.16;11316749;26;20006;-62
2024/04/15 20:42:28;;;;;;;1.15;0.82;;;;;;;6.26;54.22;98949.69;11318918;26;19998;-61
2024/04/15 20:47:31;;;;;;;1.02;0.70;;;;;;;6.18;54.58;98941.47;11319207;26;19994;-62
2024/04/15 20:52:36;;;;;;;1.25;0.57;;;;;;;6.22;54.43;98937.78;11318574;26;20008;-61
2024/04/15 20:57:39;;;;;;;0.60;0.60;;;;;;;6.23;54.40;98941.19;11318007;26;19998;-61
2024/04/15 21:02:42;;;;;;;1.92;0.45;;;;;;;6.23;54.70;98938.59;11309479;26;20005;-61
2024/04/15 21:07:46;;;;;;;0.80;0.68;;;;;;;6.24;54.53;98935.94;11317484;26;20936;-62
2024/04/15 21:12:49;;;;;;;1.67;0.57;;;;;;;6.17;55.03;98925.97;11317438;26;20776;-62
2024/04/15 21:17:52;;;;;;;1.42;0.60;;;;;;;6.17;54.89;98932.00;11309092;26;20010;-61
2024/04/15 21:22:55;;;;;;;0.95;0.68;;;;;;;6.46;54.48;98919.09;11317921;26;20021;-61
2024/04/15 21:27:58;;;;;;;1.50;0.70;;;;;;;6.55;55.03;98915.97;11316644;26;21458;-61
2024/04/15 21:33:01;;;;;;;2.25;0.70;;;;;;;6.59;54.60;98918.31;11316911;26;19994;-62
2024/04/15 21:38:04;;;;;;;0.40;0.40;;;;;;;6.50;54.53;98924.03;11317653;26;19999;-61
2024/04/15 21:43:07;;;;;;;1.48;0.68;;;;;;;6.39;54.81;98923.81;11317027;26;20002;-61
2024/04/15 21:48:09;;;;;;;0.55;0.55;;;;;;;6.42;54.87;98922.81;11316045;26;20112;-61
2024/04/15 21:53:12;;;;;;;2.85;0.80;;;;;;;6.52;54.36;98916.16;11292601;26;19998;-62
2024/04/15 21:58:15;;;;;;;0.70;0.70;;;;;;;6.47;54.55;98920.78;11324832;26;20320;-61
2024/04/15 22:03:17;;;;;;;0.65;0.60;;;;;;;6.48;54.76;98936.28;11322561;26;19999;-61
2024/04/15 22:08:20;;;;;;;0.98;0.57;;;;;;;6.47;54.36;98937.19;11323828;26;20152;-64
2024/04/15 22:13:22;;;;;;;0.90;0.70;;;;;;;6.46;54.67;98921.72;11320719;26;20457;-62
2024/04/15 22:18:25;;;;;;;1.77;0.70;;;;;;;6.45;54.60;98935.63;11324205;26;20006;-62
2024/04/15 22:23:28;;;;;;;1.35;0.63;;;;;;;6.52;54.20;98937.78;11324565;26;20551;-62
2024/04/15 22:28:31;;;;;;;1.85;0.52;;;;;;;6.49;54.41;98942.31;11322594;26;20009;-62
2024/04/15 22:33:34;;;;;;;1.27;0.75;;;;;;;6.59;53.94;98938.25;11323948;26;19998;-61
2024/04/15 22:38:36;;;;;;;1.27;0.70;;;;;;;6.72;53.96;98939.19;11323642;26;19998;-61
2024/04/15 22:43:39;;;;;;;1.98;0.85;;;;;;;6.85;53.74;98943.56;11320965;26;20074;-61
2024/04/15 22:48:42;;;;;;;1.17;0.55;;;;;;;6.92;53.80;98951.81;11320908;26;20065;-62
2024/04/15 22:53:44;;;;;;;4.00;1.38;;;;;;;7.04;53.26;98964.09;11320566;26;20013;-61
2024/04/15 22:58:47;;;;;;;1.85;0.70;;;;;;;7.17;53.49;98965.00;11323516;26;19994;-61
2024/04/15 23:03:49;;;;;;;1.92;1.20;;;;;;;7.32;53.19;98951.06;11321939;26;20006;-61
2024/04/15 23:08:54;;;;;;;3.63;0.93;;;;;;;7.52;52.85;98955.84;11320503;26;20010;-61
2024/04/15 23:13:57;;;;;;;1.50;0.80;;;;;;;7.68;52.99;98946.16;11321626;26;20021;-62
2024/04/15 23:18:59;;;;;;;1.80;0.80;;;;;;;7.59;53.53;98946.72;11323992;26;20025;-62
2024/04/15 23:24:02;;;;;;;0.40;0.40;;;;;;;7.49;53.64;98937.81;11319221;26;20006;-62
2024/04/15 23:29:04;;;;;;;1.60;0.70;;;;;;;7.32;54.57;98922.47;11322274;26;20016;-61
2024/04/15 23:34:07;;;;;;;0.82;0.60;;;;;;;6.87;55.82;98940.88;11322009;26;20025;-62
2024/04/15 23:39:11;;;;;;;1.67;1.08;;;;;;;6.79;55.94;98935.28;11321671;26;20709;-61